sensor_id;sensor_type;location;lat;lon;timestamp;pressure;altitude;pressure_sealevel;temperature;humidity
74310;BME280;62722;51.142;17.052;2022-11-03T00:01:00;101209.97;;;6.70;86.29
74310;BME280;62722;51.142;17.052;2022-11-03T00:03:29;101223.16;;;6.68;86.38
74310;BME280;62722;51.142;17.052;2022-11-03T00:05:56;101218.91;;;6.64;86.26
74310;BME280;62722;51.142;17.052;2022-11-03T00:08:34;101219.03;;;6.61;86.63
74310;BME280;62722;51.142;17.052;2022-11-03T00:11:04;101215.47;;;6.62;86.76
74310;BME280;62722;51.142;17.052;2022-11-03T00:13:31;101213.84;;;6.58;86.79
74310;BME280;62722;51.142;17.052;2022-11-03T00:15:59;101213.78;;;6.61;86.52
74310;BME280;62722;51.142;17.052;2022-11-03T00:18:26;101207.72;;;6.59;86.12
74310;BME280;62722;51.142;17.052;2022-11-03T00:20:59;101210.34;;;6.59;86.18
74310;BME280;62722;51.142;17.052;2022-11-03T00:23:28;101204.38;;;6.54;86.23
74310;BME280;62722;51.142;17.052;2022-11-03T00:26:02;101210.75;;;6.47;85.99
74310;BME280;62722;51.142;17.052;2022-11-03T00:28:30;101210.00;;;6.44;86.04
74310;BME280;62722;51.142;17.052;2022-11-03T00:30:59;101214.56;;;6.39;85.75
74310;BME280;62722;51.142;17.052;2022-11-03T00:33:30;101207.97;;;6.25;86.29
74310;BME280;62722;51.142;17.052;2022-11-03T00:35:59;101213.47;;;6.18;85.99
74310;BME280;62722;51.142;17.052;2022-11-03T00:38:27;101206.56;;;6.15;86.66
74310;BME280;62722;51.142;17.052;2022-11-03T00:40:55;101213.47;;;6.18;86.55
74310;BME280;62722;51.142;17.052;2022-11-03T00:43:23;101203.09;;;6.15;86.16
74310;BME280;62722;51.142;17.052;2022-11-03T00:45:51;101203.31;;;6.09;86.58
74310;BME280;62722;51.142;17.052;2022-11-03T00:48:19;101205.00;;;6.10;86.92
74310;BME280;62722;51.142;17.052;2022-11-03T00:51:01;101194.63;;;6.07;87.10
74310;BME280;62722;51.142;17.052;2022-11-03T00:53:30;101195.38;;;6.10;87.47
74310;BME280;62722;51.142;17.052;2022-11-03T00:55:57;101200.47;;;6.15;86.72
74310;BME280;62722;51.142;17.052;2022-11-03T00:58:24;101199.00;;;6.06;86.23
74310;BME280;62722;51.142;17.052;2022-11-03T01:00:58;101193.91;;;6.02;86.79
74310;BME280;62722;51.142;17.052;2022-11-03T01:03:25;101198.47;;;5.95;86.36
74310;BME280;62722;51.142;17.052;2022-11-03T01:05:52;101204.75;;;5.91;86.42
74310;BME280;62722;51.142;17.052;2022-11-03T01:08:39;101208.25;;;5.90;86.93
74310;BME280;62722;51.142;17.052;2022-11-03T01:11:07;101195.19;;;5.88;86.56
74310;BME280;62722;51.142;17.052;2022-11-03T01:13:53;101203.22;;;5.82;86.95
74310;BME280;62722;51.142;17.052;2022-11-03T01:16:20;101211.00;;;5.85;87.08
74310;BME280;62722;51.142;17.052;2022-11-03T01:18:48;101197.91;;;5.84;86.98
74310;BME280;62722;51.142;17.052;2022-11-03T01:21:15;101194.53;;;5.80;86.57
74310;BME280;62722;51.142;17.052;2022-11-03T01:23:44;101192.84;;;5.79;87.26
74310;BME280;62722;51.142;17.052;2022-11-03T01:26:12;101187.66;;;5.78;86.88
74310;BME280;62722;51.142;17.052;2022-11-03T01:28:42;101191.16;;;5.77;86.83
74310;BME280;62722;51.142;17.052;2022-11-03T01:31:11;101193.78;;;5.77;86.80
74310;BME280;62722;51.142;17.052;2022-11-03T01:33:39;101199.03;;;5.77;86.53
74310;BME280;62722;51.142;17.052;2022-11-03T01:36:07;101203.50;;;5.73;86.66
74310;BME280;62722;51.142;17.052;2022-11-03T01:38:36;101202.59;;;5.74;86.91
74310;BME280;62722;51.142;17.052;2022-11-03T01:41:07;101200.13;;;5.70;86.69
74310;BME280;62722;51.142;17.052;2022-11-03T01:43:36;101198.56;;;5.64;86.42
74310;BME280;62722;51.142;17.052;2022-11-03T01:46:08;101201.94;;;5.68;86.39
74310;BME280;62722;51.142;17.052;2022-11-03T01:48:43;101202.91;;;5.65;86.58
74310;BME280;62722;51.142;17.052;2022-11-03T01:51:14;101193.50;;;5.58;86.52
74310;BME280;62722;51.142;17.052;2022-11-03T01:53:45;101189.44;;;5.48;86.19
74310;BME280;62722;51.142;17.052;2022-11-03T01:56:15;101192.13;;;5.47;86.78
74310;BME280;62722;51.142;17.052;2022-11-03T01:58:45;101186.81;;;5.48;87.54
74310;BME280;62722;51.142;17.052;2022-11-03T02:01:14;101191.91;;;5.54;87.02
74310;BME280;62722;51.142;17.052;2022-11-03T02:03:45;101182.97;;;5.60;86.55
74310;BME280;62722;51.142;17.052;2022-11-03T02:06:14;101176.97;;;5.56;86.08
74310;BME280;62722;51.142;17.052;2022-11-03T02:08:46;101180.59;;;5.52;85.90
74310;BME280;62722;51.142;17.052;2022-11-03T02:11:16;101180.78;;;5.46;86.35
74310;BME280;62722;51.142;17.052;2022-11-03T02:14:01;101173.16;;;5.38;85.80
74310;BME280;62722;51.142;17.052;2022-11-03T02:16:30;101168.19;;;5.29;85.93
74310;BME280;62722;51.142;17.052;2022-11-03T02:18:59;101165.00;;;5.20;86.80
74310;BME280;62722;51.142;17.052;2022-11-03T02:21:30;101158.25;;;5.11;87.58
74310;BME280;62722;51.142;17.052;2022-11-03T02:24:07;101159.22;;;5.09;87.78
74310;BME280;62722;51.142;17.052;2022-11-03T02:26:39;101159.13;;;5.12;88.07
74310;BME280;62722;51.142;17.052;2022-11-03T02:29:07;101167.97;;;5.08;87.71
74310;BME280;62722;51.142;17.052;2022-11-03T02:31:40;101153.44;;;4.98;88.13
74310;BME280;62722;51.142;17.052;2022-11-03T02:34:14;101167.53;;;4.92;88.65
74310;BME280;62722;51.142;17.052;2022-11-03T02:36:48;101156.28;;;4.88;88.48
74310;BME280;62722;51.142;17.052;2022-11-03T02:39:20;101151.16;;;4.85;88.08
74310;BME280;62722;51.142;17.052;2022-11-03T02:41:52;101152.97;;;4.83;88.13
74310;BME280;62722;51.142;17.052;2022-11-03T02:44:22;101151.25;;;4.82;87.93
74310;BME280;62722;51.142;17.052;2022-11-03T02:46:54;101150.34;;;4.83;88.13
74310;BME280;62722;51.142;17.052;2022-11-03T02:49:23;101152.13;;;4.81;88.10
74310;BME280;62722;51.142;17.052;2022-11-03T02:51:58;101154.19;;;4.70;88.09
74310;BME280;62722;51.142;17.052;2022-11-03T02:54:28;101155.34;;;4.60;88.23
74310;BME280;62722;51.142;17.052;2022-11-03T02:57:02;101158.28;;;4.48;88.62
74310;BME280;62722;51.142;17.052;2022-11-03T02:59:36;101155.78;;;4.43;89.59
74310;BME280;62722;51.142;17.052;2022-11-03T03:02:07;101154.66;;;4.54;89.36
74310;BME280;62722;51.142;17.052;2022-11-03T03:04:37;101148.44;;;4.58;88.91
74310;BME280;62722;51.142;17.052;2022-11-03T03:07:07;101145.88;;;4.55;88.75
74310;BME280;62722;51.142;17.052;2022-11-03T03:09:40;101140.94;;;4.46;88.79
74310;BME280;62722;51.142;17.052;2022-11-03T03:12:11;101148.00;;;4.42;89.37
74310;BME280;62722;51.142;17.052;2022-11-03T03:14:42;101146.34;;;4.38;89.42
74310;BME280;62722;51.142;17.052;2022-11-03T03:17:13;101142.28;;;4.28;90.28
74310;BME280;62722;51.142;17.052;2022-11-03T03:19:49;101149.44;;;4.20;90.62
74310;BME280;62722;51.142;17.052;2022-11-03T03:22:23;101146.84;;;4.18;90.65
74310;BME280;62722;51.142;17.052;2022-11-03T03:24:54;101136.50;;;4.15;90.01
74310;BME280;62722;51.142;17.052;2022-11-03T03:27:28;101132.28;;;4.10;90.42
74310;BME280;62722;51.142;17.052;2022-11-03T03:30:00;101133.25;;;4.06;90.96
74310;BME280;62722;51.142;17.052;2022-11-03T03:32:31;101123.88;;;3.99;90.94
74310;BME280;62722;51.142;17.052;2022-11-03T03:35:01;101122.09;;;3.99;91.50
74310;BME280;62722;51.142;17.052;2022-11-03T03:37:30;101116.09;;;3.96;91.16
74310;BME280;62722;51.142;17.052;2022-11-03T03:40:02;101123.09;;;3.95;90.71
74310;BME280;62722;51.142;17.052;2022-11-03T03:42:32;101118.78;;;3.92;90.92
74310;BME280;62722;51.142;17.052;2022-11-03T03:45:03;101124.78;;;3.96;90.58
74310;BME280;62722;51.142;17.052;2022-11-03T03:47:33;101114.25;;;3.99;89.84
74310;BME280;62722;51.142;17.052;2022-11-03T03:50:00;101117.63;;;4.04;90.01
74310;BME280;62722;51.142;17.052;2022-11-03T03:52:28;101121.09;;;4.05;89.28
74310;BME280;62722;51.142;17.052;2022-11-03T03:54:55;101109.97;;;3.97;89.85
74310;BME280;62722;51.142;17.052;2022-11-03T03:57:23;101114.47;;;3.91;90.22
74310;BME280;62722;51.142;17.052;2022-11-03T03:59:53;101115.50;;;3.84;91.20
74310;BME280;62722;51.142;17.052;2022-11-03T04:02:20;101120.72;;;3.84;91.54
74310;BME280;62722;51.142;17.052;2022-11-03T04:04:47;101115.50;;;3.84;90.82
74310;BME280;62722;51.142;17.052;2022-11-03T04:07:14;101113.88;;;3.80;90.09
74310;BME280;62722;51.142;17.052;2022-11-03T04:09:59;101107.06;;;3.73;90.26
74310;BME280;62722;51.142;17.052;2022-11-03T04:12:26;101111.66;;;3.64;90.95
74310;BME280;62722;51.142;17.052;2022-11-03T04:15:12;101117.72;;;3.64;91.64
74310;BME280;62722;51.142;17.052;2022-11-03T04:17:56;101106.41;;;3.65;92.03
74310;BME280;62722;51.142;17.052;2022-11-03T04:20:43;101104.69;;;3.64;91.79
74310;BME280;62722;51.142;17.052;2022-11-03T04:23:42;101098.50;;;3.68;91.72
74310;BME280;62722;51.142;17.052;2022-11-03T04:26:12;101108.00;;;3.71;91.48
74310;BME280;62722;51.142;17.052;2022-11-03T04:28:39;101100.94;;;3.74;91.64
74310;BME280;62722;51.142;17.052;2022-11-03T04:31:11;101101.91;;;3.70;91.40
74310;BME280;62722;51.142;17.052;2022-11-03T04:33:38;101093.19;;;3.73;91.13
74310;BME280;62722;51.142;17.052;2022-11-03T04:36:11;101099.13;;;3.78;91.44
74310;BME280;62722;51.142;17.052;2022-11-03T04:38:42;101087.81;;;3.77;91.85
74310;BME280;62722;51.142;17.052;2022-11-03T04:41:14;101089.53;;;3.78;91.82
74310;BME280;62722;51.142;17.052;2022-11-03T04:43:43;101089.59;;;3.77;91.94
74310;BME280;62722;51.142;17.052;2022-11-03T04:46:14;101097.38;;;3.78;91.58
74310;BME280;62722;51.142;17.052;2022-11-03T04:48:42;101088.66;;;3.79;91.51
74310;BME280;62722;51.142;17.052;2022-11-03T04:51:16;101085.09;;;3.82;92.02
74310;BME280;62722;51.142;17.052;2022-11-03T04:53:47;101081.44;;;3.89;91.46
74310;BME280;62722;51.142;17.052;2022-11-03T04:56:18;101085.41;;;4.04;91.66
74310;BME280;62722;51.142;17.052;2022-11-03T04:58:46;101087.03;;;4.08;91.25
74310;BME280;62722;51.142;17.052;2022-11-03T05:01:17;101082.91;;;3.99;91.32
74310;BME280;62722;51.142;17.052;2022-11-03T05:03:47;101086.53;;;3.95;92.27
74310;BME280;62722;51.142;17.052;2022-11-03T05:06:17;101083.16;;;3.90;92.33
74310;BME280;62722;51.142;17.052;2022-11-03T05:08:49;101076.28;;;3.86;92.70
74310;BME280;62722;51.142;17.052;2022-11-03T05:11:26;101067.66;;;3.84;92.35
74310;BME280;62722;51.142;17.052;2022-11-03T05:13:58;101066.81;;;3.82;92.97
74310;BME280;62722;51.142;17.052;2022-11-03T05:16:27;101072.78;;;3.87;92.58
74310;BME280;62722;51.142;17.052;2022-11-03T05:18:55;101069.31;;;3.86;92.42
74310;BME280;62722;51.142;17.052;2022-11-03T05:21:24;101067.66;;;3.84;92.67
74310;BME280;62722;51.142;17.052;2022-11-03T05:23:55;101062.47;;;3.82;92.80
74310;BME280;62722;51.142;17.052;2022-11-03T05:26:27;101059.00;;;3.82;93.14
74310;BME280;62722;51.142;17.052;2022-11-03T05:28:57;101063.25;;;3.84;92.40
74310;BME280;62722;51.142;17.052;2022-11-03T05:31:29;101060.66;;;3.84;92.33
74310;BME280;62722;51.142;17.052;2022-11-03T05:33:58;101061.56;;;3.83;92.38
74310;BME280;62722;51.142;17.052;2022-11-03T05:36:28;101058.13;;;3.81;92.20
74310;BME280;62722;51.142;17.052;2022-11-03T05:38:59;101067.75;;;3.79;92.84
74310;BME280;62722;51.142;17.052;2022-11-03T05:41:29;101057.31;;;3.79;92.79
74310;BME280;62722;51.142;17.052;2022-11-03T05:43:58;101054.78;;;3.76;93.67
74310;BME280;62722;51.142;17.052;2022-11-03T05:46:30;101051.25;;;3.77;93.57
74310;BME280;62722;51.142;17.052;2022-11-03T05:49:00;101050.47;;;3.75;93.43
74310;BME280;62722;51.142;17.052;2022-11-03T05:51:31;101053.06;;;3.75;94.12
74310;BME280;62722;51.142;17.052;2022-11-03T05:54:01;101053.94;;;3.76;93.93
74310;BME280;62722;51.142;17.052;2022-11-03T05:56:30;101049.56;;;3.76;94.33
74310;BME280;62722;51.142;17.052;2022-11-03T05:58:59;101041.78;;;3.73;94.02
74310;BME280;62722;51.142;17.052;2022-11-03T06:01:30;101046.97;;;3.76;94.26
74310;BME280;62722;51.142;17.052;2022-11-03T06:03:59;101044.41;;;3.73;94.44
74310;BME280;62722;51.142;17.052;2022-11-03T06:06:28;101050.47;;;3.74;94.23
74310;BME280;62722;51.142;17.052;2022-11-03T06:08:59;101053.06;;;3.75;94.21
74310;BME280;62722;51.142;17.052;2022-11-03T06:11:31;101047.88;;;3.74;94.59
74310;BME280;62722;51.142;17.052;2022-11-03T06:13:59;101049.63;;;3.73;94.69
74310;BME280;62722;51.142;17.052;2022-11-03T06:16:38;101043.47;;;3.76;94.21
74310;BME280;62722;51.142;17.052;2022-11-03T06:19:28;101047.75;;;3.80;94.49
74310;BME280;62722;51.142;17.052;2022-11-03T06:21:58;101048.59;;;3.80;94.12
74310;BME280;62722;51.142;17.052;2022-11-03T06:24:30;101052.81;;;3.84;94.32
74310;BME280;62722;51.142;17.052;2022-11-03T06:26:58;101058.88;;;3.86;94.12
74310;BME280;62722;51.142;17.052;2022-11-03T06:29:25;101067.47;;;3.91;94.08
74310;BME280;62722;51.142;17.052;2022-11-03T06:31:55;101047.41;;;3.92;93.57
74310;BME280;62722;51.142;17.052;2022-11-03T06:34:32;101063.78;;;3.99;93.92
74310;BME280;62722;51.142;17.052;2022-11-03T06:37:09;101060.25;;;4.01;94.23
74310;BME280;62722;51.142;17.052;2022-11-03T06:39:37;101055.75;;;4.06;93.85
74310;BME280;62722;51.142;17.052;2022-11-03T06:42:11;101060.94;;;4.08;94.30
74310;BME280;62722;51.142;17.052;2022-11-03T06:44:40;101063.41;;;4.14;93.98
74310;BME280;62722;51.142;17.052;2022-11-03T06:47:19;101072.59;;;4.27;94.10
74310;BME280;62722;51.142;17.052;2022-11-03T06:49:49;101067.91;;;4.39;94.02
74310;BME280;62722;51.142;17.052;2022-11-03T06:52:24;101060.78;;;4.45;94.30
74310;BME280;62722;51.142;17.052;2022-11-03T06:54:54;101065.91;;;4.49;94.01
74310;BME280;62722;51.142;17.052;2022-11-03T06:57:25;101056.31;;;4.50;93.56
74310;BME280;62722;51.142;17.052;2022-11-03T06:59:54;101058.06;;;4.49;93.55
74310;BME280;62722;51.142;17.052;2022-11-03T07:02:48;101054.47;;;4.53;93.82
74310;BME280;62722;51.142;17.052;2022-11-03T07:05:20;101053.41;;;4.59;94.22
74310;BME280;62722;51.142;17.052;2022-11-03T07:07:48;101050.66;;;4.63;94.21
74310;BME280;62722;51.142;17.052;2022-11-03T07:10:16;101060.91;;;4.71;93.93
74310;BME280;62722;51.142;17.052;2022-11-03T07:12:43;101058.06;;;4.78;93.98
74310;BME280;62722;51.142;17.052;2022-11-03T07:15:19;101058.75;;;4.85;93.86
74310;BME280;62722;51.142;17.052;2022-11-03T07:17:50;101051.50;;;4.95;94.00
74310;BME280;62722;51.142;17.052;2022-11-03T07:20:17;101051.41;;;4.98;93.63
74310;BME280;62722;51.142;17.052;2022-11-03T07:22:45;101053.91;;;5.01;93.46
74310;BME280;62722;51.142;17.052;2022-11-03T07:25:17;101052.94;;;5.05;93.90
74310;BME280;62722;51.142;17.052;2022-11-03T07:27:46;101051.94;;;5.09;93.62
74310;BME280;62722;51.142;17.052;2022-11-03T07:30:18;101050.84;;;5.16;93.48
74310;BME280;62722;51.142;17.052;2022-11-03T07:32:47;101046.28;;;5.22;93.60
74310;BME280;62722;51.142;17.052;2022-11-03T07:35:28;101046.94;;;5.29;92.80
74310;BME280;62722;51.142;17.052;2022-11-03T07:37:57;101044.03;;;5.38;92.91
74310;BME280;62722;51.142;17.052;2022-11-03T07:40:28;101049.88;;;5.46;93.06
74310;BME280;62722;51.142;17.052;2022-11-03T07:43:00;101042.72;;;5.51;92.84
74310;BME280;62722;51.142;17.052;2022-11-03T07:45:35;101040.81;;;5.56;92.78
74310;BME280;62722;51.142;17.052;2022-11-03T07:48:19;101037.09;;;5.63;92.38
74310;BME280;62722;51.142;17.052;2022-11-03T07:50:50;101033.34;;;5.70;92.55
74310;BME280;62722;51.142;17.052;2022-11-03T07:53:20;101033.19;;;5.76;92.25
74310;BME280;62722;51.142;17.052;2022-11-03T07:55:48;101024.19;;;5.83;92.54
74310;BME280;62722;51.142;17.052;2022-11-03T07:58:22;101016.03;;;5.93;92.41
74310;BME280;62722;51.142;17.052;2022-11-03T08:00:54;101010.50;;;6.02;92.43
74310;BME280;62722;51.142;17.052;2022-11-03T08:03:34;100997.78;;;6.14;92.23
74310;BME280;62722;51.142;17.052;2022-11-03T08:06:04;100997.41;;;6.25;91.53
74310;BME280;62722;51.142;17.052;2022-11-03T08:08:31;100988.59;;;6.27;91.47
74310;BME280;62722;51.142;17.052;2022-11-03T08:10:59;100990.59;;;6.44;91.09
74310;BME280;62722;51.142;17.052;2022-11-03T08:13:26;100982.59;;;6.47;91.01
74310;BME280;62722;51.142;17.052;2022-11-03T08:15:53;100992.75;;;6.56;91.09
74310;BME280;62722;51.142;17.052;2022-11-03T08:18:20;100982.03;;;6.62;91.60
74310;BME280;62722;51.142;17.052;2022-11-03T08:20:48;100984.31;;;6.71;90.91
74310;BME280;62722;51.142;17.052;2022-11-03T08:23:16;100987.50;;;6.79;90.54
74310;BME280;62722;51.142;17.052;2022-11-03T08:25:44;100977.44;;;6.91;90.00
74310;BME280;62722;51.142;17.052;2022-11-03T08:28:12;100979.56;;;7.03;89.92
74310;BME280;62722;51.142;17.052;2022-11-03T08:30:39;100978.34;;;7.11;89.57
74310;BME280;62722;51.142;17.052;2022-11-03T08:33:06;100964.06;;;7.18;89.62
74310;BME280;62722;51.142;17.052;2022-11-03T08:35:33;100956.59;;;7.29;89.27
74310;BME280;62722;51.142;17.052;2022-11-03T08:38:00;100962.22;;;7.42;88.53
74310;BME280;62722;51.142;17.052;2022-11-03T08:40:29;100947.91;;;7.49;88.70
74310;BME280;62722;51.142;17.052;2022-11-03T08:42:56;100940.31;;;7.63;87.90
74310;BME280;62722;51.142;17.052;2022-11-03T08:45:25;100947.66;;;7.75;87.66
74310;BME280;62722;51.142;17.052;2022-11-03T08:47:52;100938.47;;;7.86;86.88
74310;BME280;62722;51.142;17.052;2022-11-03T08:50:19;100933.38;;;8.01;86.97
74310;BME280;62722;51.142;17.052;2022-11-03T08:52:46;100931.19;;;8.11;87.02
74310;BME280;62722;51.142;17.052;2022-11-03T08:55:14;100916.78;;;8.19;86.11
74310;BME280;62722;51.142;17.052;2022-11-03T08:57:43;100926.09;;;8.26;85.76
74310;BME280;62722;51.142;17.052;2022-11-03T09:00:11;100912.03;;;8.27;85.55
74310;BME280;62722;51.142;17.052;2022-11-03T09:02:38;100917.47;;;8.43;85.28
74310;BME280;62722;51.142;17.052;2022-11-03T09:05:06;100903.88;;;8.52;85.25
74310;BME280;62722;51.142;17.052;2022-11-03T09:07:33;100896.41;;;8.62;84.55
74310;BME280;62722;51.142;17.052;2022-11-03T09:10:01;100899.16;;;8.77;84.00
74310;BME280;62722;51.142;17.052;2022-11-03T09:12:28;100896.66;;;8.93;83.73
74310;BME280;62722;51.142;17.052;2022-11-03T09:14:56;100889.94;;;9.05;83.17
74310;BME280;62722;51.142;17.052;2022-11-03T09:17:23;100883.59;;;9.26;82.15
74310;BME280;62722;51.142;17.052;2022-11-03T09:19:50;100882.28;;;9.35;82.06
74310;BME280;62722;51.142;17.052;2022-11-03T09:22:17;100878.41;;;9.42;82.21
74310;BME280;62722;51.142;17.052;2022-11-03T09:24:45;100873.84;;;9.45;81.95
74310;BME280;62722;51.142;17.052;2022-11-03T09:27:12;100861.03;;;9.55;81.25
74310;BME280;62722;51.142;17.052;2022-11-03T09:29:39;100861.22;;;9.85;78.42
74310;BME280;62722;51.142;17.052;2022-11-03T09:32:07;100859.59;;;9.98;77.05
74310;BME280;62722;51.142;17.052;2022-11-03T09:34:35;100861.25;;;10.00;77.49
74310;BME280;62722;51.142;17.052;2022-11-03T09:37:02;100849.84;;;10.00;77.62
74310;BME280;62722;51.142;17.052;2022-11-03T09:39:30;100849.06;;;9.98;77.85
74310;BME280;62722;51.142;17.052;2022-11-03T09:41:57;100841.88;;;10.01;77.06
74310;BME280;62722;51.142;17.052;2022-11-03T09:44:25;100842.88;;;9.99;78.14
74310;BME280;62722;51.142;17.052;2022-11-03T09:46:52;100838.94;;;10.06;77.53
74310;BME280;62722;51.142;17.052;2022-11-03T09:49:21;100836.31;;;10.06;77.61
74310;BME280;62722;51.142;17.052;2022-11-03T09:51:48;100830.28;;;10.04;77.39
74310;BME280;62722;51.142;17.052;2022-11-03T09:54:16;100835.34;;;10.24;75.79
74310;BME280;62722;51.142;17.052;2022-11-03T09:56:43;100830.84;;;10.26;76.13
74310;BME280;62722;51.142;17.052;2022-11-03T09:59:13;100820.97;;;10.30;75.70
74310;BME280;62722;51.142;17.052;2022-11-03T10:01:42;100822.00;;;10.27;76.30
74310;BME280;62722;51.142;17.052;2022-11-03T10:04:11;100820.63;;;10.20;77.32
74310;BME280;62722;51.142;17.052;2022-11-03T10:06:40;100815.34;;;10.36;75.31
74310;BME280;62722;51.142;17.052;2022-11-03T10:09:10;100815.34;;;10.36;76.00
74310;BME280;62722;51.142;17.052;2022-11-03T10:11:40;100812.28;;;10.43;75.30
74310;BME280;62722;51.142;17.052;2022-11-03T10:14:10;100807.59;;;10.48;75.75
74310;BME280;62722;51.142;17.052;2022-11-03T10:16:39;100798.75;;;10.49;75.52
74310;BME280;62722;51.142;17.052;2022-11-03T10:19:08;100789.72;;;10.53;75.23
74310;BME280;62722;51.142;17.052;2022-11-03T10:21:40;100790.84;;;10.49;75.43
74310;BME280;62722;51.142;17.052;2022-11-03T10:24:09;100783.44;;;10.40;75.76
74310;BME280;62722;51.142;17.052;2022-11-03T10:26:44;100772.88;;;10.40;76.11
74310;BME280;62722;51.142;17.052;2022-11-03T10:29:19;100777.41;;;10.38;76.57
74310;BME280;62722;51.142;17.052;2022-11-03T10:31:48;100778.34;;;10.37;76.42
74310;BME280;62722;51.142;17.052;2022-11-03T10:34:24;100768.09;;;10.31;76.68
74310;BME280;62722;51.142;17.052;2022-11-03T10:39:49;100765.31;;;10.34;77.35
74310;BME280;62722;51.142;17.052;2022-11-03T10:42:22;100748.53;;;10.35;76.97
74310;BME280;62722;51.142;17.052;2022-11-03T10:44:51;100753.31;;;10.44;76.99
74310;BME280;62722;51.142;17.052;2022-11-03T10:47:25;100747.66;;;10.50;77.05
74310;BME280;62722;51.142;17.052;2022-11-03T10:49:52;100746.69;;;10.67;76.03
74310;BME280;62722;51.142;17.052;2022-11-03T10:52:22;100737.66;;;10.71;76.41
74310;BME280;62722;51.142;17.052;2022-11-03T10:54:53;100732.09;;;10.75;76.51
74310;BME280;62722;51.142;17.052;2022-11-03T10:57:22;100728.25;;;10.81;75.72
74310;BME280;62722;51.142;17.052;2022-11-03T10:59:51;100725.75;;;10.94;75.40
74310;BME280;62722;51.142;17.052;2022-11-03T11:02:22;100721.50;;;11.05;74.73
74310;BME280;62722;51.142;17.052;2022-11-03T11:04:53;100712.72;;;11.05;74.90
74310;BME280;62722;51.142;17.052;2022-11-03T11:07:27;100707.16;;;11.09;75.00
74310;BME280;62722;51.142;17.052;2022-11-03T11:10:05;100697.47;;;11.10;75.28
74310;BME280;62722;51.142;17.052;2022-11-03T11:12:33;100695.19;;;11.18;74.77
74310;BME280;62722;51.142;17.052;2022-11-03T11:15:01;100695.47;;;11.13;75.17
74310;BME280;62722;51.142;17.052;2022-11-03T11:17:44;100697.47;;;11.10;75.56
74310;BME280;62722;51.142;17.052;2022-11-03T11:20:35;100685.50;;;11.04;75.28
74310;BME280;62722;51.142;17.052;2022-11-03T11:26:28;100676.59;;;11.05;74.29
74310;BME280;62722;51.142;17.052;2022-11-03T11:35:32;100655.50;;;11.19;73.46
74310;BME280;62722;51.142;17.052;2022-11-03T11:41:09;100647.25;;;11.38;73.10
74310;BME280;62722;51.142;17.052;2022-11-03T11:43:38;100641.19;;;11.50;71.91
74310;BME280;62722;51.142;17.052;2022-11-03T11:46:36;100643.63;;;11.67;72.00
74310;BME280;62722;51.142;17.052;2022-11-03T11:49:22;100624.34;;;11.65;72.12
74310;BME280;62722;51.142;17.052;2022-11-03T11:51:50;100629.28;;;11.71;71.50
74310;BME280;62722;51.142;17.052;2022-11-03T11:54:19;100617.75;;;11.73;71.50
74310;BME280;62722;51.142;17.052;2022-11-03T11:56:47;100616.34;;;11.67;72.10
74310;BME280;62722;51.142;17.052;2022-11-03T11:59:18;100619.56;;;11.58;70.62
74310;BME280;62722;51.142;17.052;2022-11-03T12:01:48;100605.84;;;11.65;70.31
74310;BME280;62722;51.142;17.052;2022-11-03T12:04:19;100602.16;;;11.82;69.73
74310;BME280;62722;51.142;17.052;2022-11-03T12:06:46;100599.59;;;11.81;70.28
74310;BME280;62722;51.142;17.052;2022-11-03T12:09:16;100602.81;;;11.86;69.80
74310;BME280;62722;51.142;17.052;2022-11-03T12:11:45;100595.19;;;11.94;68.90
74310;BME280;62722;51.142;17.052;2022-11-03T12:14:24;100593.66;;;12.04;68.01
74310;BME280;62722;51.142;17.052;2022-11-03T12:16:52;100596.31;;;12.04;68.63
74310;BME280;62722;51.142;17.052;2022-11-03T12:19:37;100597.53;;;11.98;70.08
74310;BME280;62722;51.142;17.052;2022-11-03T12:22:08;100592.69;;;12.05;69.09
74310;BME280;62722;51.142;17.052;2022-11-03T12:24:47;100594.31;;;12.07;68.91
74310;BME280;62722;51.142;17.052;2022-11-03T12:27:39;100583.41;;;12.12;68.38
74310;BME280;62722;51.142;17.052;2022-11-03T12:30:16;100578.00;;;12.01;69.00
74310;BME280;62722;51.142;17.052;2022-11-03T12:32:45;100584.59;;;11.94;68.92
74310;BME280;62722;51.142;17.052;2022-11-03T12:35:12;100579.09;;;11.84;69.22
74310;BME280;62722;51.142;17.052;2022-11-03T12:37:40;100572.31;;;11.80;69.11
74310;BME280;62722;51.142;17.052;2022-11-03T12:40:10;100569.94;;;11.76;69.66
74310;BME280;62722;51.142;17.052;2022-11-03T12:42:37;100558.88;;;11.83;68.78
74310;BME280;62722;51.142;17.052;2022-11-03T12:45:05;100555.00;;;11.89;68.90
74310;BME280;62722;51.142;17.052;2022-11-03T12:47:34;100555.44;;;11.95;69.37
74310;BME280;62722;51.142;17.052;2022-11-03T12:50:02;100551.41;;;12.02;68.47
74310;BME280;62722;51.142;17.052;2022-11-03T12:52:30;100549.84;;;12.12;68.55
74310;BME280;62722;51.142;17.052;2022-11-03T12:54:57;100539.47;;;12.09;69.16
74310;BME280;62722;51.142;17.052;2022-11-03T12:57:24;100524.78;;;12.18;67.50
74310;BME280;62722;51.142;17.052;2022-11-03T12:59:51;100522.13;;;12.18;67.43
74310;BME280;62722;51.142;17.052;2022-11-03T13:02:19;100527.34;;;12.32;65.79
74310;BME280;62722;51.142;17.052;2022-11-03T13:04:47;100527.75;;;12.39;66.04
74310;BME280;62722;51.142;17.052;2022-11-03T13:07:15;100522.88;;;12.33;67.03
74310;BME280;62722;51.142;17.052;2022-11-03T13:09:42;100518.44;;;12.33;66.71
74310;BME280;62722;51.142;17.052;2022-11-03T13:12:11;100515.81;;;12.33;66.22
74310;BME280;62722;51.142;17.052;2022-11-03T13:14:55;100507.56;;;12.38;65.72
74310;BME280;62722;51.142;17.052;2022-11-03T13:17:23;100502.66;;;12.32;65.42
74310;BME280;62722;51.142;17.052;2022-11-03T13:19:51;100497.91;;;12.24;66.43
74310;BME280;62722;51.142;17.052;2022-11-03T13:22:19;100493.66;;;12.22;66.24